Pullman Moscow Regional Airport
KPUW : now visible

Airfield :











YOU CAN JOIN US ON...

 
LOGIN :

Register | Disclaimer

   EN    FR    IT 

 









Legend :    VFR   Marginal VFR   IFR   Intensive IFR   Very Intensive IFR
Visi :
Ceiling :
>= 8 km
>= 3000ft
5 to 8 km
1000 to 3000 ft
1500m to 5 km
500 to 1000 ft
800 to 1500m
200 to 500 ft
< 800m
< 200 ft
Symbols :   Thunderstorms  Fog  Heavy snow  Heavy precipitations  Wind > 20 kt






- Airport Elevation : 2556 ft
- IATA code : PUW


KPUW - Pullman Moscow Regional

CURRENT METAR :
  • 290553Z AUTO 25011G18KT 10SM FEW065 SCT095 12/04 A3007 RMK AO2 SLP180 T01170039 10189 20117 51024

EXPIRED METARs :
  • 290453Z AUTO 24015KT 10SM CLR 12/03 A3006 RMK AO2 PK WND 23028/0412 SLP176 T01220033
  • 290353Z AUTO 24018G29KT 10SM FEW070 FEW120 14/03 A3003 RMK AO2 PK WND 24029/0349 SLP164 T01390033
  • 290253Z AUTO 25012KT 10SM SCT065 BKN080 OVC120 17/05 A3000 RMK AO2 SLP151 T01670050 53007
  • 290153Z AUTO 23011G19KT 10SM FEW120 17/06 A2999 RMK AO2 SLP150 T01720056

TAF KPUW
Valid from the 29 at 06:00 until the 30 at 06:00 UTC


290523Z 2906/3006 25015G22KT P6SM FEW070 SCT120
FM290800 25012KT P6SM SCT080
FM291500 25017G24KT P6SM BKN080
FM291900 26019G25KT P6SM BKN080
PROB30 2922/3004 6SM -SHRA
FM300400 25010KT P6SM FEW070 SCT120
KZSE FIR / North America



MET'MAP, your aeronautical weather chart ! - Copyright ORBIFLY December 2007 - Disclaimer

ORBIFLY MET'MAP TEAM :

Programming & Development : Alexandra Zaïnal
Original concept : Baudouin d'Aumeries
Technical & hardware support : Manuel Goepfert
Assistance : Marc-Olivier Méhu




SOURCES & CREDITS :

   NOAA       Earth
Advisory